sensor_id;sensor_type;location;lat;lon;timestamp;temperature;humidity
8489;DHT22;4281;45.772;12.852;2022-07-29T00:01:40;27.30;99.90
8489;DHT22;4281;45.772;12.852;2022-07-29T00:04:10;27.30;99.90
8489;DHT22;4281;45.772;12.852;2022-07-29T00:06:40;27.00;99.90
8489;DHT22;4281;45.772;12.852;2022-07-29T00:09:08;27.10;99.90
8489;DHT22;4281;45.772;12.852;2022-07-29T00:11:37;27.10;99.90
8489;DHT22;4281;45.772;12.852;2022-07-29T00:14:05;26.90;99.90
8489;DHT22;4281;45.772;12.852;2022-07-29T00:16:34;27.30;99.90
8489;DHT22;4281;45.772;12.852;2022-07-29T00:19:03;27.30;99.90
8489;DHT22;4281;45.772;12.852;2022-07-29T00:21:35;27.20;99.90
8489;DHT22;4281;45.772;12.852;2022-07-29T00:24:03;27.20;99.90
8489;DHT22;4281;45.772;12.852;2022-07-29T00:26:32;27.10;99.90
8489;DHT22;4281;45.772;12.852;2022-07-29T00:29:00;27.20;99.90
8489;DHT22;4281;45.772;12.852;2022-07-29T00:31:49;27.40;99.90
8489;DHT22;4281;45.772;12.852;2022-07-29T00:34:18;27.40;99.90
8489;DHT22;4281;45.772;12.852;2022-07-29T00:37:02;27.00;99.90
8489;DHT22;4281;45.772;12.852;2022-07-29T00:39:30;26.70;99.90
8489;DHT22;4281;45.772;12.852;2022-07-29T00:41:58;26.30;99.90
8489;DHT22;4281;45.772;12.852;2022-07-29T00:44:29;26.00;99.90
8489;DHT22;4281;45.772;12.852;2022-07-29T00:46:58;26.20;99.90
8489;DHT22;4281;45.772;12.852;2022-07-29T00:49:26;26.40;99.90
8489;DHT22;4281;45.772;12.852;2022-07-29T00:51:55;26.40;99.90
8489;DHT22;4281;45.772;12.852;2022-07-29T00:54:25;26.10;99.90
8489;DHT22;4281;45.772;12.852;2022-07-29T00:56:53;26.20;99.90
8489;DHT22;4281;45.772;12.852;2022-07-29T00:59:22;26.30;99.90
8489;DHT22;4281;45.772;12.852;2022-07-29T01:02:00;26.50;99.90
8489;DHT22;4281;45.772;12.852;2022-07-29T01:04:30;26.80;99.90
8489;DHT22;4281;45.772;12.852;2022-07-29T01:07:01;27.10;99.90
8489;DHT22;4281;45.772;12.852;2022-07-29T01:09:31;27.00;99.90
8489;DHT22;4281;45.772;12.852;2022-07-29T01:12:16;27.10;99.90
8489;DHT22;4281;45.772;12.852;2022-07-29T01:14:45;27.20;99.90
8489;DHT22;4281;45.772;12.852;2022-07-29T01:17:19;27.20;99.90
8489;DHT22;4281;45.772;12.852;2022-07-29T01:19:52;27.10;99.90
8489;DHT22;4281;45.772;12.852;2022-07-29T01:22:36;27.10;99.90
8489;DHT22;4281;45.772;12.852;2022-07-29T01:25:32;27.20;99.90
8489;DHT22;4281;45.772;12.852;2022-07-29T01:30:54;27.50;99.90
8489;DHT22;4281;45.772;12.852;2022-07-29T01:33:24;27.30;99.90
8489;DHT22;4281;45.772;12.852;2022-07-29T01:36:13;27.30;99.90
8489;DHT22;4281;45.772;12.852;2022-07-29T01:38:45;27.30;99.90
8489;DHT22;4281;45.772;12.852;2022-07-29T01:41:19;27.40;99.90
8489;DHT22;4281;45.772;12.852;2022-07-29T01:43:52;27.40;99.90
8489;DHT22;4281;45.772;12.852;2022-07-29T01:46:27;27.30;99.90
8489;DHT22;4281;45.772;12.852;2022-07-29T01:49:05;27.50;99.90
8489;DHT22;4281;45.772;12.852;2022-07-29T01:51:38;27.60;99.90
8489;DHT22;4281;45.772;12.852;2022-07-29T01:54:13;27.50;99.90
8489;DHT22;4281;45.772;12.852;2022-07-29T01:56:43;27.40;99.90
8489;DHT22;4281;45.772;12.852;2022-07-29T01:59:13;27.40;99.90
8489;DHT22;4281;45.772;12.852;2022-07-29T02:01:45;27.10;99.90
8489;DHT22;4281;45.772;12.852;2022-07-29T02:04:17;26.80;99.90
8489;DHT22;4281;45.772;12.852;2022-07-29T02:07:01;26.70;99.90
8489;DHT22;4281;45.772;12.852;2022-07-29T02:09:32;27.00;99.90
8489;DHT22;4281;45.772;12.852;2022-07-29T02:12:02;26.70;99.90
8489;DHT22;4281;45.772;12.852;2022-07-29T02:14:34;26.20;99.90
8489;DHT22;4281;45.772;12.852;2022-07-29T02:17:05;26.40;99.90
8489;DHT22;4281;45.772;12.852;2022-07-29T02:19:36;26.50;99.90
8489;DHT22;4281;45.772;12.852;2022-07-29T02:22:06;26.50;99.90
8489;DHT22;4281;45.772;12.852;2022-07-29T02:24:35;26.30;99.90
8489;DHT22;4281;45.772;12.852;2022-07-29T02:27:05;26.30;99.90
8489;DHT22;4281;45.772;12.852;2022-07-29T02:29:36;26.60;99.90
8489;DHT22;4281;45.772;12.852;2022-07-29T02:32:07;26.70;99.90
8489;DHT22;4281;45.772;12.852;2022-07-29T02:34:38;26.60;99.90
8489;DHT22;4281;45.772;12.852;2022-07-29T02:37:09;26.60;99.90
8489;DHT22;4281;45.772;12.852;2022-07-29T02:39:41;26.50;99.90
8489;DHT22;4281;45.772;12.852;2022-07-29T02:42:12;26.60;99.90
8489;DHT22;4281;45.772;12.852;2022-07-29T02:44:41;26.70;99.90
8489;DHT22;4281;45.772;12.852;2022-07-29T02:47:17;26.60;99.90
8489;DHT22;4281;45.772;12.852;2022-07-29T02:49:52;26.60;99.90
8489;DHT22;4281;45.772;12.852;2022-07-29T02:52:26;26.50;99.90
8489;DHT22;4281;45.772;12.852;2022-07-29T02:54:57;26.20;99.90
8489;DHT22;4281;45.772;12.852;2022-07-29T02:57:32;26.20;99.90
8489;DHT22;4281;45.772;12.852;2022-07-29T03:00:21;26.30;99.90
8489;DHT22;4281;45.772;12.852;2022-07-29T03:02:54;26.40;99.90
8489;DHT22;4281;45.772;12.852;2022-07-29T03:05:24;26.70;99.90
8489;DHT22;4281;45.772;12.852;2022-07-29T03:07:57;26.80;99.90
8489;DHT22;4281;45.772;12.852;2022-07-29T03:10:26;27.00;99.90
8489;DHT22;4281;45.772;12.852;2022-07-29T03:12:55;26.90;99.90
8489;DHT22;4281;45.772;12.852;2022-07-29T03:15:25;27.00;99.90
8489;DHT22;4281;45.772;12.852;2022-07-29T03:17:55;27.10;99.90
8489;DHT22;4281;45.772;12.852;2022-07-29T03:20:25;27.20;99.90
8489;DHT22;4281;45.772;12.852;2022-07-29T03:22:53;27.10;99.90
8489;DHT22;4281;45.772;12.852;2022-07-29T03:25:22;26.90;99.90
8489;DHT22;4281;45.772;12.852;2022-07-29T03:27:50;26.70;99.90
8489;DHT22;4281;45.772;12.852;2022-07-29T03:30:18;26.40;99.90
8489;DHT22;4281;45.772;12.852;2022-07-29T03:32:49;25.90;99.90
8489;DHT22;4281;45.772;12.852;2022-07-29T03:35:19;25.70;99.90
8489;DHT22;4281;45.772;12.852;2022-07-29T03:37:48;25.50;99.90
8489;DHT22;4281;45.772;12.852;2022-07-29T03:40:21;25.50;99.90
8489;DHT22;4281;45.772;12.852;2022-07-29T03:42:51;25.40;99.90
8489;DHT22;4281;45.772;12.852;2022-07-29T03:45:23;25.20;99.90
8489;DHT22;4281;45.772;12.852;2022-07-29T03:47:59;25.20;99.90
8489;DHT22;4281;45.772;12.852;2022-07-29T03:50:30;25.20;99.90
8489;DHT22;4281;45.772;12.852;2022-07-29T03:53:00;25.10;99.90
8489;DHT22;4281;45.772;12.852;2022-07-29T03:55:30;25.30;99.90
8489;DHT22;4281;45.772;12.852;2022-07-29T03:58:01;25.50;99.90
8489;DHT22;4281;45.772;12.852;2022-07-29T04:00:30;25.50;99.90
8489;DHT22;4281;45.772;12.852;2022-07-29T04:03:00;25.50;99.90
8489;DHT22;4281;45.772;12.852;2022-07-29T04:05:30;25.60;99.90
8489;DHT22;4281;45.772;12.852;2022-07-29T04:07:59;25.50;99.90
8489;DHT22;4281;45.772;12.852;2022-07-29T04:10:27;25.40;99.90
8489;DHT22;4281;45.772;12.852;2022-07-29T04:13:00;25.40;99.90
8489;DHT22;4281;45.772;12.852;2022-07-29T04:15:28;25.10;99.90
8489;DHT22;4281;45.772;12.852;2022-07-29T04:17:58;24.90;99.90
8489;DHT22;4281;45.772;12.852;2022-07-29T04:20:26;24.90;99.90
8489;DHT22;4281;45.772;12.852;2022-07-29T04:22:56;25.00;99.90
8489;DHT22;4281;45.772;12.852;2022-07-29T04:25:25;25.00;99.90
8489;DHT22;4281;45.772;12.852;2022-07-29T04:27:53;24.90;99.90
8489;DHT22;4281;45.772;12.852;2022-07-29T04:30:31;24.90;99.90
8489;DHT22;4281;45.772;12.852;2022-07-29T04:33:00;24.90;99.90
8489;DHT22;4281;45.772;12.852;2022-07-29T04:35:29;24.80;99.90
8489;DHT22;4281;45.772;12.852;2022-07-29T04:38:06;24.70;99.90
8489;DHT22;4281;45.772;12.852;2022-07-29T04:40:43;24.70;99.90
8489;DHT22;4281;45.772;12.852;2022-07-29T04:43:13;24.80;99.90
8489;DHT22;4281;45.772;12.852;2022-07-29T04:45:41;24.80;99.90
8489;DHT22;4281;45.772;12.852;2022-07-29T04:48:10;24.90;99.90
8489;DHT22;4281;45.772;12.852;2022-07-29T04:50:39;25.00;99.90
8489;DHT22;4281;45.772;12.852;2022-07-29T04:53:08;25.20;99.90
8489;DHT22;4281;45.772;12.852;2022-07-29T04:55:37;25.50;99.90
8489;DHT22;4281;45.772;12.852;2022-07-29T04:58:05;25.30;99.90
8489;DHT22;4281;45.772;12.852;2022-07-29T05:00:34;25.30;99.90
8489;DHT22;4281;45.772;12.852;2022-07-29T05:03:03;25.40;99.90
8489;DHT22;4281;45.772;12.852;2022-07-29T05:05:31;25.60;99.90
8489;DHT22;4281;45.772;12.852;2022-07-29T05:08:00;25.40;99.90
8489;DHT22;4281;45.772;12.852;2022-07-29T05:10:29;25.40;99.90
8489;DHT22;4281;45.772;12.852;2022-07-29T05:12:58;25.50;99.90
8489;DHT22;4281;45.772;12.852;2022-07-29T05:15:26;25.50;99.90
8489;DHT22;4281;45.772;12.852;2022-07-29T05:17:54;25.40;99.90
8489;DHT22;4281;45.772;12.852;2022-07-29T05:20:23;25.50;99.90
8489;DHT22;4281;45.772;12.852;2022-07-29T05:22:55;25.60;99.90
8489;DHT22;4281;45.772;12.852;2022-07-29T05:25:23;25.80;99.90
8489;DHT22;4281;45.772;12.852;2022-07-29T05:28:12;25.90;99.90
8489;DHT22;4281;45.772;12.852;2022-07-29T05:30:40;25.80;99.90
8489;DHT22;4281;45.772;12.852;2022-07-29T05:33:11;25.90;99.90
8489;DHT22;4281;45.772;12.852;2022-07-29T05:35:59;25.60;99.90
8489;DHT22;4281;45.772;12.852;2022-07-29T05:38:28;25.50;99.90
8489;DHT22;4281;45.772;12.852;2022-07-29T05:40:57;25.50;99.90
8489;DHT22;4281;45.772;12.852;2022-07-29T05:43:28;25.80;99.90
8489;DHT22;4281;45.772;12.852;2022-07-29T05:45:56;25.90;99.90
8489;DHT22;4281;45.772;12.852;2022-07-29T05:48:25;25.90;99.90
8489;DHT22;4281;45.772;12.852;2022-07-29T05:50:53;25.80;99.90
8489;DHT22;4281;45.772;12.852;2022-07-29T05:53:22;26.00;99.90
8489;DHT22;4281;45.772;12.852;2022-07-29T05:55:51;25.90;99.90
8489;DHT22;4281;45.772;12.852;2022-07-29T05:58:19;26.00;99.90
8489;DHT22;4281;45.772;12.852;2022-07-29T06:00:49;26.20;99.90
8489;DHT22;4281;45.772;12.852;2022-07-29T06:03:18;26.40;99.90
8489;DHT22;4281;45.772;12.852;2022-07-29T06:05:46;26.60;99.90
8489;DHT22;4281;45.772;12.852;2022-07-29T06:08:15;26.80;99.90
8489;DHT22;4281;45.772;12.852;2022-07-29T06:10:43;26.80;99.90
8489;DHT22;4281;45.772;12.852;2022-07-29T06:13:12;27.00;99.90
8489;DHT22;4281;45.772;12.852;2022-07-29T06:15:43;26.80;99.90
8489;DHT22;4281;45.772;12.852;2022-07-29T06:18:13;26.90;99.90
8489;DHT22;4281;45.772;12.852;2022-07-29T06:20:42;26.70;99.90
8489;DHT22;4281;45.772;12.852;2022-07-29T06:23:10;26.90;99.90
8489;DHT22;4281;45.772;12.852;2022-07-29T06:25:39;26.90;99.90
8489;DHT22;4281;45.772;12.852;2022-07-29T06:28:08;27.00;99.90
8489;DHT22;4281;45.772;12.852;2022-07-29T06:30:36;27.30;99.90
8489;DHT22;4281;45.772;12.852;2022-07-29T06:33:05;27.20;99.90
8489;DHT22;4281;45.772;12.852;2022-07-29T06:35:36;27.40;99.90
8489;DHT22;4281;45.772;12.852;2022-07-29T06:38:11;27.70;99.90
8489;DHT22;4281;45.772;12.852;2022-07-29T06:40:59;27.80;99.90
8489;DHT22;4281;45.772;12.852;2022-07-29T06:43:35;27.80;99.90
8489;DHT22;4281;45.772;12.852;2022-07-29T06:46:21;27.70;99.90
8489;DHT22;4281;45.772;12.852;2022-07-29T06:48:50;27.70;99.90
8489;DHT22;4281;45.772;12.852;2022-07-29T06:51:21;27.90;99.90
8489;DHT22;4281;45.772;12.852;2022-07-29T06:53:51;27.90;99.90
8489;DHT22;4281;45.772;12.852;2022-07-29T06:56:27;28.00;99.90
8489;DHT22;4281;45.772;12.852;2022-07-29T06:58:56;28.20;99.90
8489;DHT22;4281;45.772;12.852;2022-07-29T07:01:24;28.00;99.90
8489;DHT22;4281;45.772;12.852;2022-07-29T07:03:53;28.40;99.90
8489;DHT22;4281;45.772;12.852;2022-07-29T07:06:23;28.30;99.90
8489;DHT22;4281;45.772;12.852;2022-07-29T07:08:51;28.50;99.90
8489;DHT22;4281;45.772;12.852;2022-07-29T07:11:19;28.20;99.90
8489;DHT22;4281;45.772;12.852;2022-07-29T07:13:48;28.00;99.90
8489;DHT22;4281;45.772;12.852;2022-07-29T07:16:16;28.20;99.90
8489;DHT22;4281;45.772;12.852;2022-07-29T07:18:45;28.40;99.90
8489;DHT22;4281;45.772;12.852;2022-07-29T07:21:13;28.40;99.90
8489;DHT22;4281;45.772;12.852;2022-07-29T07:23:46;28.20;99.90
8489;DHT22;4281;45.772;12.852;2022-07-29T07:26:15;28.40;99.90
8489;DHT22;4281;45.772;12.852;2022-07-29T07:28:43;28.30;99.90
8489;DHT22;4281;45.772;12.852;2022-07-29T07:31:12;28.50;99.90
8489;DHT22;4281;45.772;12.852;2022-07-29T07:33:41;28.70;99.90
8489;DHT22;4281;45.772;12.852;2022-07-29T07:36:09;28.90;99.90
8489;DHT22;4281;45.772;12.852;2022-07-29T07:38:37;28.90;99.90
8489;DHT22;4281;45.772;12.852;2022-07-29T07:41:07;29.20;99.90
8489;DHT22;4281;45.772;12.852;2022-07-29T07:43:36;29.30;99.90
8489;DHT22;4281;45.772;12.852;2022-07-29T07:46:05;29.50;99.90
8489;DHT22;4281;45.772;12.852;2022-07-29T07:48:34;29.60;99.90
8489;DHT22;4281;45.772;12.852;2022-07-29T07:51:03;29.70;99.90
8489;DHT22;4281;45.772;12.852;2022-07-29T07:53:32;29.70;99.90
8489;DHT22;4281;45.772;12.852;2022-07-29T07:56:00;29.60;99.90
8489;DHT22;4281;45.772;12.852;2022-07-29T07:58:40;29.60;99.90
8489;DHT22;4281;45.772;12.852;2022-07-29T08:01:08;29.50;99.90
8489;DHT22;4281;45.772;12.852;2022-07-29T08:03:37;29.80;99.90
8489;DHT22;4281;45.772;12.852;2022-07-29T08:06:06;30.00;99.90
8489;DHT22;4281;45.772;12.852;2022-07-29T08:08:35;30.00;99.90
8489;DHT22;4281;45.772;12.852;2022-07-29T08:11:03;30.30;99.90
8489;DHT22;4281;45.772;12.852;2022-07-29T08:13:36;30.20;99.90
8489;DHT22;4281;45.772;12.852;2022-07-29T08:16:07;30.10;99.90
8489;DHT22;4281;45.772;12.852;2022-07-29T08:18:43;29.90;99.90
8489;DHT22;4281;45.772;12.852;2022-07-29T08:21:12;30.20;99.90
8489;DHT22;4281;45.772;12.852;2022-07-29T08:23:42;30.20;99.90
8489;DHT22;4281;45.772;12.852;2022-07-29T08:26:25;30.10;99.90
8489;DHT22;4281;45.772;12.852;2022-07-29T08:28:54;30.00;99.90
8489;DHT22;4281;45.772;12.852;2022-07-29T08:31:24;30.20;99.90
8489;DHT22;4281;45.772;12.852;2022-07-29T08:33:52;30.40;99.90
8489;DHT22;4281;45.772;12.852;2022-07-29T08:36:23;30.30;99.90
8489;DHT22;4281;45.772;12.852;2022-07-29T08:38:52;30.30;99.90
8489;DHT22;4281;45.772;12.852;2022-07-29T08:41:21;30.40;99.90
8489;DHT22;4281;45.772;12.852;2022-07-29T08:43:50;30.50;99.90
8489;DHT22;4281;45.772;12.852;2022-07-29T08:46:20;30.50;99.90
8489;DHT22;4281;45.772;12.852;2022-07-29T08:48:50;30.60;99.90
8489;DHT22;4281;45.772;12.852;2022-07-29T08:51:19;30.80;99.90
8489;DHT22;4281;45.772;12.852;2022-07-29T08:53:49;31.10;99.90
8489;DHT22;4281;45.772;12.852;2022-07-29T08:56:19;31.10;99.60
8489;DHT22;4281;45.772;12.852;2022-07-29T08:58:48;31.30;99.90
8489;DHT22;4281;45.772;12.852;2022-07-29T09:01:22;31.50;99.90
8489;DHT22;4281;45.772;12.852;2022-07-29T09:04:11;31.30;99.00
8489;DHT22;4281;45.772;12.852;2022-07-29T09:06:43;31.40;98.70
8489;DHT22;4281;45.772;12.852;2022-07-29T09:09:12;31.40;97.90
8489;DHT22;4281;45.772;12.852;2022-07-29T09:11:42;31.60;98.60
8489;DHT22;4281;45.772;12.852;2022-07-29T09:14:12;31.60;99.70
8489;DHT22;4281;45.772;12.852;2022-07-29T09:16:50;31.70;99.40
8489;DHT22;4281;45.772;12.852;2022-07-29T09:19:23;31.90;98.60
8489;DHT22;4281;45.772;12.852;2022-07-29T09:21:53;31.90;98.50
8489;DHT22;4281;45.772;12.852;2022-07-29T09:24:40;31.60;96.70
8489;DHT22;4281;45.772;12.852;2022-07-29T09:27:19;31.20;97.80
8489;DHT22;4281;45.772;12.852;2022-07-29T09:29:59;31.40;97.60
8489;DHT22;4281;45.772;12.852;2022-07-29T09:32:27;31.60;96.80
8489;DHT22;4281;45.772;12.852;2022-07-29T09:35:21;31.80;96.60
8489;DHT22;4281;45.772;12.852;2022-07-29T09:37:50;31.70;96.80
8489;DHT22;4281;45.772;12.852;2022-07-29T09:40:20;31.90;97.00
8489;DHT22;4281;45.772;12.852;2022-07-29T09:42:49;32.00;96.40
8489;DHT22;4281;45.772;12.852;2022-07-29T09:45:28;31.90;96.20
8489;DHT22;4281;45.772;12.852;2022-07-29T09:47:57;31.90;96.40
8489;DHT22;4281;45.772;12.852;2022-07-29T09:50:38;31.90;95.70
8489;DHT22;4281;45.772;12.852;2022-07-29T09:53:07;32.00;95.90
8489;DHT22;4281;45.772;12.852;2022-07-29T09:55:47;32.20;95.40
8489;DHT22;4281;45.772;12.852;2022-07-29T09:58:19;32.10;94.90
8489;DHT22;4281;45.772;12.852;2022-07-29T10:00:48;32.10;95.30
8489;DHT22;4281;45.772;12.852;2022-07-29T10:03:18;32.30;95.60
8489;DHT22;4281;45.772;12.852;2022-07-29T10:06:04;32.30;95.40
8489;DHT22;4281;45.772;12.852;2022-07-29T10:08:33;32.50;95.70
8489;DHT22;4281;45.772;12.852;2022-07-29T10:11:12;32.60;95.40
8489;DHT22;4281;45.772;12.852;2022-07-29T10:13:43;32.70;95.50
8489;DHT22;4281;45.772;12.852;2022-07-29T10:16:13;32.90;94.70
8489;DHT22;4281;45.772;12.852;2022-07-29T10:18:42;33.00;94.40
8489;DHT22;4281;45.772;12.852;2022-07-29T10:21:13;33.10;94.50
8489;DHT22;4281;45.772;12.852;2022-07-29T10:24:01;33.10;94.00
8489;DHT22;4281;45.772;12.852;2022-07-29T10:26:30;33.20;94.10
8489;DHT22;4281;45.772;12.852;2022-07-29T10:28:59;33.20;93.20
8489;DHT22;4281;45.772;12.852;2022-07-29T10:31:33;33.20;93.20
8489;DHT22;4281;45.772;12.852;2022-07-29T10:34:10;33.30;93.50
8489;DHT22;4281;45.772;12.852;2022-07-29T10:36:53;33.30;92.90
8489;DHT22;4281;45.772;12.852;2022-07-29T10:39:37;33.10;92.30
8489;DHT22;4281;45.772;12.852;2022-07-29T10:42:17;32.90;91.70
8489;DHT22;4281;45.772;12.852;2022-07-29T10:44:59;32.90;91.60
8489;DHT22;4281;45.772;12.852;2022-07-29T10:47:27;33.10;91.40
8489;DHT22;4281;45.772;12.852;2022-07-29T10:49:57;33.20;91.30
8489;DHT22;4281;45.772;12.852;2022-07-29T10:52:55;33.40;91.80
8489;DHT22;4281;45.772;12.852;2022-07-29T10:55:31;33.50;92.40
8489;DHT22;4281;45.772;12.852;2022-07-29T10:58:12;33.60;91.80
8489;DHT22;4281;45.772;12.852;2022-07-29T11:00:41;33.80;92.10
8489;DHT22;4281;45.772;12.852;2022-07-29T11:06:23;33.80;91.60
8489;DHT22;4281;45.772;12.852;2022-07-29T11:09:22;33.80;91.00
8489;DHT22;4281;45.772;12.852;2022-07-29T11:12:01;33.50;90.90
8489;DHT22;4281;45.772;12.852;2022-07-29T11:14:55;33.60;90.60
8489;DHT22;4281;45.772;12.852;2022-07-29T11:17:24;33.70;91.00
8489;DHT22;4281;45.772;12.852;2022-07-29T11:20:30;33.90;90.60
8489;DHT22;4281;45.772;12.852;2022-07-29T11:22:59;34.10;90.40
8489;DHT22;4281;45.772;12.852;2022-07-29T11:25:30;34.10;90.70
8489;DHT22;4281;45.772;12.852;2022-07-29T11:28:20;33.90;91.00
8489;DHT22;4281;45.772;12.852;2022-07-29T11:30:52;33.70;90.40
8489;DHT22;4281;45.772;12.852;2022-07-29T11:33:28;33.70;90.60
8489;DHT22;4281;45.772;12.852;2022-07-29T11:36:16;33.90;90.10
8489;DHT22;4281;45.772;12.852;2022-07-29T11:39:25;33.80;90.70
8489;DHT22;4281;45.772;12.852;2022-07-29T11:45:13;33.90;90.30
8489;DHT22;4281;45.772;12.852;2022-07-29T11:48:01;33.90;90.50
8489;DHT22;4281;45.772;12.852;2022-07-29T11:50:51;33.90;91.00
8489;DHT22;4281;45.772;12.852;2022-07-29T11:53:21;34.20;90.50
8489;DHT22;4281;45.772;12.852;2022-07-29T11:55:54;34.30;90.30
8489;DHT22;4281;45.772;12.852;2022-07-29T11:58:24;34.40;90.20
8489;DHT22;4281;45.772;12.852;2022-07-29T12:00:54;34.10;90.10
8489;DHT22;4281;45.772;12.852;2022-07-29T12:03:25;34.20;91.00
8489;DHT22;4281;45.772;12.852;2022-07-29T12:06:01;34.30;93.20
8489;DHT22;4281;45.772;12.852;2022-07-29T12:08:40;34.60;93.00
8489;DHT22;4281;45.772;12.852;2022-07-29T12:11:15;34.30;93.30
8489;DHT22;4281;45.772;12.852;2022-07-29T12:13:47;34.10;92.60
8489;DHT22;4281;45.772;12.852;2022-07-29T12:16:17;34.20;91.40
8489;DHT22;4281;45.772;12.852;2022-07-29T12:18:56;34.40;91.50
8489;DHT22;4281;45.772;12.852;2022-07-29T12:21:25;34.40;90.70
8489;DHT22;4281;45.772;12.852;2022-07-29T12:23:55;34.40;90.80
8489;DHT22;4281;45.772;12.852;2022-07-29T12:26:35;34.30;93.00
8489;DHT22;4281;45.772;12.852;2022-07-29T12:29:06;34.50;93.80
8489;DHT22;4281;45.772;12.852;2022-07-29T12:31:51;34.40;94.50
8489;DHT22;4281;45.772;12.852;2022-07-29T12:34:27;34.40;94.90
8489;DHT22;4281;45.772;12.852;2022-07-29T12:36:58;34.40;95.00
8489;DHT22;4281;45.772;12.852;2022-07-29T12:39:28;34.30;94.80
8489;DHT22;4281;45.772;12.852;2022-07-29T12:41:56;34.40;94.80
8489;DHT22;4281;45.772;12.852;2022-07-29T12:44:44;34.30;95.70
8489;DHT22;4281;45.772;12.852;2022-07-29T12:47:13;34.20;96.10
8489;DHT22;4281;45.772;12.852;2022-07-29T12:49:42;34.40;96.10
8489;DHT22;4281;45.772;12.852;2022-07-29T12:52:34;34.50;95.50
8489;DHT22;4281;45.772;12.852;2022-07-29T12:55:04;34.40;95.40
8489;DHT22;4281;45.772;12.852;2022-07-29T12:57:44;34.50;96.60
8489;DHT22;4281;45.772;12.852;2022-07-29T13:00:14;34.50;96.30
8489;DHT22;4281;45.772;12.852;2022-07-29T13:02:55;34.60;96.20
8489;DHT22;4281;45.772;12.852;2022-07-29T13:05:24;34.70;96.10
8489;DHT22;4281;45.772;12.852;2022-07-29T13:07:52;34.60;96.20
8489;DHT22;4281;45.772;12.852;2022-07-29T13:10:23;34.70;96.80
8489;DHT22;4281;45.772;12.852;2022-07-29T13:15:42;34.90;96.00
8489;DHT22;4281;45.772;12.852;2022-07-29T13:18:32;34.70;96.20
8489;DHT22;4281;45.772;12.852;2022-07-29T13:21:10;34.70;95.50
8489;DHT22;4281;45.772;12.852;2022-07-29T13:23:39;34.60;96.10
8489;DHT22;4281;45.772;12.852;2022-07-29T13:26:08;34.40;96.50
8489;DHT22;4281;45.772;12.852;2022-07-29T13:28:38;34.30;96.70
8489;DHT22;4281;45.772;12.852;2022-07-29T13:31:10;34.40;96.10
8489;DHT22;4281;45.772;12.852;2022-07-29T13:33:40;34.40;95.80
8489;DHT22;4281;45.772;12.852;2022-07-29T13:36:08;34.20;95.80
8489;DHT22;4281;45.772;12.852;2022-07-29T13:38:37;34.30;95.70
8489;DHT22;4281;45.772;12.852;2022-07-29T13:41:05;34.40;95.70
8489;DHT22;4281;45.772;12.852;2022-07-29T13:43:34;34.40;96.20
8489;DHT22;4281;45.772;12.852;2022-07-29T13:46:02;34.40;95.80
8489;DHT22;4281;45.772;12.852;2022-07-29T13:48:31;34.50;96.20
8489;DHT22;4281;45.772;12.852;2022-07-29T13:51:01;34.60;96.00
8489;DHT22;4281;45.772;12.852;2022-07-29T13:53:29;34.60;95.80
8489;DHT22;4281;45.772;12.852;2022-07-29T13:55:58;34.80;96.00
8489;DHT22;4281;45.772;12.852;2022-07-29T13:58:26;34.70;95.50
8489;DHT22;4281;45.772;12.852;2022-07-29T14:00:55;34.70;95.10
8489;DHT22;4281;45.772;12.852;2022-07-29T14:03:24;34.60;95.20
8489;DHT22;4281;45.772;12.852;2022-07-29T14:05:52;34.60;95.30
8489;DHT22;4281;45.772;12.852;2022-07-29T14:08:22;34.50;95.80
8489;DHT22;4281;45.772;12.852;2022-07-29T14:10:51;34.60;95.60
8489;DHT22;4281;45.772;12.852;2022-07-29T14:13:19;34.60;94.90
8489;DHT22;4281;45.772;12.852;2022-07-29T14:15:52;34.60;95.20
8489;DHT22;4281;45.772;12.852;2022-07-29T14:18:20;34.50;95.60
8489;DHT22;4281;45.772;12.852;2022-07-29T14:20:49;34.60;95.40
8489;DHT22;4281;45.772;12.852;2022-07-29T14:23:18;34.50;95.00
8489;DHT22;4281;45.772;12.852;2022-07-29T14:25:48;34.50;95.40
8489;DHT22;4281;45.772;12.852;2022-07-29T14:28:16;34.40;95.20
8489;DHT22;4281;45.772;12.852;2022-07-29T14:30:44;34.20;95.00
8489;DHT22;4281;45.772;12.852;2022-07-29T14:33:13;34.30;95.30
8489;DHT22;4281;45.772;12.852;2022-07-29T14:35:41;34.30;95.10
8489;DHT22;4281;45.772;12.852;2022-07-29T14:38:10;34.30;94.90
8489;DHT22;4281;45.772;12.852;2022-07-29T14:40:38;34.20;94.90
8489;DHT22;4281;45.772;12.852;2022-07-29T14:43:08;34.20;94.90
8489;DHT22;4281;45.772;12.852;2022-07-29T14:45:37;34.20;94.90
8489;DHT22;4281;45.772;12.852;2022-07-29T14:48:05;34.10;94.70
8489;DHT22;4281;45.772;12.852;2022-07-29T14:50:34;34.10;94.70
8489;DHT22;4281;45.772;12.852;2022-07-29T14:53:02;34.10;94.90
8489;DHT22;4281;45.772;12.852;2022-07-29T14:55:31;34.10;94.70
8489;DHT22;4281;45.772;12.852;2022-07-29T14:57:59;34.00;94.50
8489;DHT22;4281;45.772;12.852;2022-07-29T15:00:38;34.10;94.70
8489;DHT22;4281;45.772;12.852;2022-07-29T15:03:06;34.10;94.30
8489;DHT22;4281;45.772;12.852;2022-07-29T15:05:37;34.10;94.00
8489;DHT22;4281;45.772;12.852;2022-07-29T15:08:05;34.10;93.70
8489;DHT22;4281;45.772;12.852;2022-07-29T15:10:35;34.10;93.70
8489;DHT22;4281;45.772;12.852;2022-07-29T15:13:03;34.10;93.60
8489;DHT22;4281;45.772;12.852;2022-07-29T15:15:32;34.10;93.70
8489;DHT22;4281;45.772;12.852;2022-07-29T15:18:02;34.10;93.50
8489;DHT22;4281;45.772;12.852;2022-07-29T15:20:30;34.00;93.50
8489;DHT22;4281;45.772;12.852;2022-07-29T15:22:58;33.90;93.30
8489;DHT22;4281;45.772;12.852;2022-07-29T15:25:27;33.90;93.30
8489;DHT22;4281;45.772;12.852;2022-07-29T15:27:55;33.60;93.30
8489;DHT22;4281;45.772;12.852;2022-07-29T15:30:29;33.50;93.30
8489;DHT22;4281;45.772;12.852;2022-07-29T15:33:02;33.30;93.70
8489;DHT22;4281;45.772;12.852;2022-07-29T15:35:30;33.30;93.20
8489;DHT22;4281;45.772;12.852;2022-07-29T15:38:05;33.20;93.10
8489;DHT22;4281;45.772;12.852;2022-07-29T15:40:35;33.20;93.30
8489;DHT22;4281;45.772;12.852;2022-07-29T15:43:05;33.20;93.70
8489;DHT22;4281;45.772;12.852;2022-07-29T15:45:37;33.20;93.50
8489;DHT22;4281;45.772;12.852;2022-07-29T15:48:09;33.00;93.70
8489;DHT22;4281;45.772;12.852;2022-07-29T15:50:40;33.10;93.60
8489;DHT22;4281;45.772;12.852;2022-07-29T15:53:13;33.10;93.20
8489;DHT22;4281;45.772;12.852;2022-07-29T15:55:41;33.10;93.60
8489;DHT22;4281;45.772;12.852;2022-07-29T15:58:10;33.00;93.70
8489;DHT22;4281;45.772;12.852;2022-07-29T16:00:39;32.90;93.80
8489;DHT22;4281;45.772;12.852;2022-07-29T16:03:08;32.90;93.80
8489;DHT22;4281;45.772;12.852;2022-07-29T16:05:37;32.80;94.20
8489;DHT22;4281;45.772;12.852;2022-07-29T16:08:05;32.70;94.50
8489;DHT22;4281;45.772;12.852;2022-07-29T16:10:34;32.60;94.60
8489;DHT22;4281;45.772;12.852;2022-07-29T16:13:02;32.70;94.10
8489;DHT22;4281;45.772;12.852;2022-07-29T16:15:30;32.60;94.20
8489;DHT22;4281;45.772;12.852;2022-07-29T16:17:59;32.50;93.70
8489;DHT22;4281;45.772;12.852;2022-07-29T16:20:30;32.30;94.20
8489;DHT22;4281;45.772;12.852;2022-07-29T16:22:58;32.40;94.10
8489;DHT22;4281;45.772;12.852;2022-07-29T16:25:27;32.40;94.80
8489;DHT22;4281;45.772;12.852;2022-07-29T16:28:15;32.40;94.80